Time;durP1;ratioP1;P1;durP2;ratioP2;P2;SDS_P1;SDS_P2;PMS_P1;PMS_P2;Temp;Humidity;BMP_temperature;BMP_pressure;BME280_temperature;BME280_humidity;BME280_pressure;Samples;Min_cycle;Max_cycle;Signal;HPM_P1;HPM_P2
2021/03/19 00:00:32;;;;;;;102.15;69.32;;;;;;;-1.16;69.01;100561.36;127965;1101;22599;-77
2021/03/19 00:03:16;;;;;;;105.40;68.83;;;;;;;-1.15;68.83;100557.84;127979;1101;22537;-77
2021/03/19 00:05:44;;;;;;;95.10;75.17;;;;;;;-1.13;69.32;100566.37;128008;1101;24587;-77
2021/03/19 00:08:13;;;;;;;100.57;78.67;;;;;;;-1.11;69.82;100561.09;128018;1101;22573;-78
2021/03/19 00:10:41;;;;;;;95.97;75.57;;;;;;;-1.11;69.62;100564.51;128008;1101;22573;-78
2021/03/19 00:13:10;;;;;;;99.40;78.07;;;;;;;-1.11;69.77;100567.10;128011;1101;22493;-78
2021/03/19 00:15:39;;;;;;;102.85;80.07;;;;;;;-1.12;69.67;100557.66;127985;1101;22517;-78
2021/03/19 00:18:08;;;;;;;100.80;79.82;;;;;;;-1.13;69.29;100557.73;128086;1101;22888;-78
2021/03/19 00:20:41;;;;;;;104.72;73.85;;;;;;;-1.17;69.25;100556.25;128039;1101;24384;-77
2021/03/19 00:23:10;;;;;;;107.60;75.20;;;;;;;-1.21;69.41;100553.83;128039;1101;24606;-77
2021/03/19 00:25:42;;;;;;;100.55;70.10;;;;;;;-1.25;69.76;100548.92;127973;1101;24584;-77
2021/03/19 00:28:15;;;;;;;98.45;68.33;;;;;;;-1.26;69.87;100558.45;127992;1101;24616;-77
2021/03/19 00:30:45;;;;;;;99.87;69.12;;;;;;;-1.26;69.62;100549.84;127992;1101;24638;-77
2021/03/19 00:33:15;;;;;;;109.03;72.78;;;;;;;-1.28;69.79;100547.33;128070;1101;22620;-78
2021/03/19 00:35:44;;;;;;;101.55;67.92;;;;;;;-1.27;69.87;100546.39;128072;1101;22585;-77
2021/03/19 00:38:12;;;;;;;103.97;70.42;;;;;;;-1.28;70.42;100546.50;127972;1101;22528;-77
2021/03/19 00:40:43;;;;;;;100.62;67.32;;;;;;;-1.28;70.19;100551.68;128046;1101;22497;-77
2021/03/19 00:43:16;;;;;;;106.03;66.75;;;;;;;-1.28;70.53;100551.68;128163;1101;22497;-77
2021/03/19 00:45:45;;;;;;;99.05;66.40;;;;;;;-1.31;69.97;100547.50;127979;1100;22656;-79
2021/03/19 00:48:13;;;;;;;106.15;68.95;;;;;;;-1.33;70.35;100551.09;128039;1099;22498;-77
2021/03/19 00:50:54;;;;;;;107.15;68.40;;;;;;;-1.37;69.85;100552.20;127994;1101;22641;-76
2021/03/19 00:53:23;;;;;;;114.90;68.50;;;;;;;-1.42;69.92;100537.75;128014;1101;22648;-79
2021/03/19 00:55:55;;;;;;;102.50;68.17;;;;;;;-1.45;69.64;100543.10;128011;1101;22563;-77
2021/03/19 00:58:24;;;;;;;105.00;68.17;;;;;;;-1.49;70.02;100546.80;127973;1101;22491;-76
2021/03/19 01:00:52;;;;;;;107.43;69.15;;;;;;;-1.54;69.45;100541.02;128012;1101;22494;-77
2021/03/19 01:03:21;;;;;;;99.35;65.62;;;;;;;-1.57;69.72;100545.53;128276;1101;22503;-77
2021/03/19 01:05:49;;;;;;;114.52;69.15;;;;;;;-1.62;70.05;100539.80;128001;1101;24372;-78
2021/03/19 01:08:18;;;;;;;112.05;69.53;;;;;;;-1.65;69.69;100543.38;128253;1100;22516;-77
2021/03/19 01:10:57;;;;;;;110.08;69.03;;;;;;;-1.66;69.61;100545.14;128007;1100;22530;-78
2021/03/19 01:13:27;;;;;;;111.97;73.40;;;;;;;-1.70;70.22;100545.37;128095;1101;22571;-78
2021/03/19 01:15:55;;;;;;;111.97;73.37;;;;;;;-1.71;70.04;100541.95;128038;1101;24581;-78
2021/03/19 01:18:29;;;;;;;113.12;73.90;;;;;;;-1.72;70.45;100539.47;127989;1101;22515;-78
2021/03/19 01:21:16;;;;;;;112.92;75.08;;;;;;;-1.72;70.79;100545.48;128015;1101;25069;-78
2021/03/19 01:23:46;;;;;;;115.62;75.92;;;;;;;-1.70;70.46;100545.37;128052;1101;25179;-78
2021/03/19 01:26:16;;;;;;;114.82;75.05;;;;;;;-1.69;71.07;100547.06;128071;1101;24623;-78
2021/03/19 01:28:44;;;;;;;117.03;75.32;;;;;;;-1.67;70.65;100543.48;128040;1101;24719;-78
2021/03/19 01:31:23;;;;;;;124.62;80.12;;;;;;;-1.64;70.97;100544.22;128037;1101;22521;-78
2021/03/19 01:33:52;;;;;;;115.15;73.72;;;;;;;-1.60;70.63;100546.56;128058;1101;24584;-77
2021/03/19 01:36:20;;;;;;;114.12;74.05;;;;;;;-1.56;70.92;100542.05;128254;1101;22532;-76
2021/03/19 01:38:50;;;;;;;114.67;76.87;;;;;;;-1.50;71.29;100550.31;128083;1101;22496;-77
2021/03/19 01:41:18;;;;;;;113.05;76.67;;;;;;;-1.46;70.74;100548.38;128027;1101;24339;-77
2021/03/19 01:44:17;;;;;;;115.45;75.25;;;;;;;-1.44;70.80;100547.35;128028;1101;22622;-77
2021/03/19 01:47:42;;;;;;;122.17;80.25;;;;;;;-1.44;71.28;100552.53;127986;1100;24603;-76
2021/03/19 01:51:07;;;;;;;124.07;79.37;;;;;;;-1.46;70.73;100543.20;128254;1099;23258;-77
2021/03/19 01:54:31;;;;;;;120.72;79.58;;;;;;;-1.46;71.67;100544.03;127973;1099;24573;-77
2021/03/19 01:57:57;;;;;;;127.78;77.40;;;;;;;-1.45;71.29;100539.68;128262;1099;22621;-77
2021/03/19 02:01:22;;;;;;;124.27;81.10;;;;;;;-1.47;70.78;100542.34;128238;1101;22497;-77
2021/03/19 02:04:47;;;;;;;128.42;80.35;;;;;;;-1.47;71.11;100539.75;127978;1101;22526;-79
2021/03/19 02:08:11;;;;;;;120.25;79.82;;;;;;;-1.46;71.55;100540.61;127953;1101;23261;-76
2021/03/19 02:11:36;;;;;;;122.05;80.00;;;;;;;-1.45;71.50;100539.68;127989;1101;22493;-77
2021/03/19 02:15:00;;;;;;;125.10;78.02;;;;;;;-1.46;71.23;100538.84;128215;1101;22529;-78
2021/03/19 02:18:24;;;;;;;116.37;77.92;;;;;;;-1.48;71.32;100534.67;128242;1099;22495;-78
2021/03/19 02:21:49;;;;;;;124.85;79.45;;;;;;;-1.45;71.74;100534.50;128245;1101;22495;-78
2021/03/19 02:25:14;;;;;;;116.50;75.25;;;;;;;-1.45;71.84;100539.68;128171;1101;22499;-79
2021/03/19 02:28:38;;;;;;;115.40;75.97;;;;;;;-1.44;71.47;100531.80;128249;1099;22496;-79
2021/03/19 02:31:10;;;;;;;115.57;75.47;;;;;;;-1.40;71.71;100536.81;128284;1100;22492;-78
2021/03/19 02:33:54;;;;;;;122.23;79.33;;;;;;;-1.36;71.65;100544.35;128019;1099;25024;-78
2021/03/19 02:36:27;;;;;;;116.62;76.15;;;;;;;-1.33;71.95;100535.55;128055;1101;23245;-78
2021/03/19 02:38:56;;;;;;;118.25;76.45;;;;;;;-1.30;71.71;100537.96;128022;1101;22525;-78
2021/03/19 02:41:24;;;;;;;112.97;74.55;;;;;;;-1.26;72.01;100537.72;128027;1101;22624;-78
2021/03/19 02:43:52;;;;;;;120.62;77.72;;;;;;;-1.24;71.37;100533.27;128010;1100;22505;-78
2021/03/19 02:46:20;;;;;;;116.20;77.25;;;;;;;-1.22;71.44;100536.61;127959;1101;22531;-78
2021/03/19 02:48:48;;;;;;;117.72;76.02;;;;;;;-1.20;71.63;100537.38;127950;1101;22524;-78
2021/03/19 02:51:16;;;;;;;109.32;76.60;;;;;;;-1.17;72.05;100533.75;127983;1101;22573;-78
2021/03/19 02:53:45;;;;;;;121.50;76.28;;;;;;;-1.16;71.92;100540.62;128003;1101;22646;-78
2021/03/19 02:56:13;;;;;;;122.05;78.55;;;;;;;-1.15;71.40;100534.50;127988;1101;24380;-78
2021/03/19 02:58:41;;;;;;;114.95;77.22;;;;;;;-1.15;71.35;100541.45;127960;1101;22550;-78
2021/03/19 03:01:09;;;;;;;113.92;76.40;;;;;;;-1.15;71.59;100536.27;127975;1101;22576;-78
2021/03/19 03:03:37;;;;;;;121.57;76.00;;;;;;;-1.17;71.72;100538.94;127957;1101;22528;-78
2021/03/19 03:06:07;;;;;;;123.15;73.87;;;;;;;-1.20;71.38;100549.47;128265;1100;25092;-78
2021/03/19 03:08:36;;;;;;;113.65;77.08;;;;;;;-1.24;71.73;100540.21;128059;1101;24384;-78
2021/03/19 03:11:04;;;;;;;116.55;77.97;;;;;;;-1.27;71.00;100542.98;127979;1101;24616;-79
2021/03/19 03:13:32;;;;;;;113.62;75.28;;;;;;;-1.30;71.11;100541.41;128023;1101;22503;-78
2021/03/19 03:16:04;;;;;;;114.80;73.30;;;;;;;-1.33;71.09;100551.09;127972;1101;25141;-78
2021/03/19 03:18:33;;;;;;;111.90;73.70;;;;;;;-1.36;71.21;100559.90;128027;1101;24603;-78
2021/03/19 03:21:03;;;;;;;112.42;75.35;;;;;;;-1.42;71.52;100549.88;128017;1101;22569;-78
2021/03/19 03:23:32;;;;;;;116.75;77.35;;;;;;;-1.45;71.30;100561.23;128022;1101;22495;-78
2021/03/19 03:26:01;;;;;;;111.08;74.12;;;;;;;-1.46;71.50;100556.98;128013;1101;22500;-78
2021/03/19 03:28:29;;;;;;;111.08;74.90;;;;;;;-1.46;71.74;100562.17;128017;1101;22495;-78
2021/03/19 03:30:58;;;;;;;113.65;73.70;;;;;;;-1.47;71.65;100568.25;128028;1101;22500;-78
2021/03/19 03:33:27;;;;;;;117.70;76.70;;;;;;;-1.51;71.52;100568.52;128010;1101;24330;-78
2021/03/19 03:35:56;;;;;;;108.22;73.20;;;;;;;-1.57;71.35;100567.09;128021;1101;24584;-78
2021/03/19 03:38:27;;;;;;;113.03;75.40;;;;;;;-1.58;71.44;100564.60;128026;1101;22573;-77
2021/03/19 03:41:11;;;;;;;118.93;79.30;;;;;;;-1.64;71.14;100563.17;128042;1101;22511;-78
2021/03/19 03:43:40;;;;;;;106.17;76.95;;;;;;;-1.67;72.11;100573.70;128011;1101;22573;-79
2021/03/19 03:46:15;;;;;;;121.02;80.35;;;;;;;-1.67;71.68;100573.70;128010;1101;22638;-78
2021/03/19 03:48:44;;;;;;;111.62;75.62;;;;;;;-1.72;71.75;100573.14;128059;1101;24313;-78
2021/03/19 03:51:12;;;;;;;112.35;77.05;;;;;;;-1.75;71.66;100566.36;128034;1101;24275;-79
2021/03/19 03:53:41;;;;;;;112.52;77.97;;;;;;;-1.77;72.10;100570.78;128307;1100;22589;-78
2021/03/19 03:56:13;;;;;;;124.78;79.15;;;;;;;-1.78;72.19;100568.28;127964;1101;22524;-78
2021/03/19 03:58:42;;;;;;;;;;;;;;;-1.88;71.21;100557.59;128056;1101;22508;-79
2021/03/19 04:01:10;;;;;;;122.60;80.20;;;;;;;-1.95;71.68;100569.20;128018;1101;21349;-78
2021/03/19 04:03:40;;;;;;;123.58;80.85;;;;;;;-1.95;72.03;100562.27;127987;1101;22499;-76
2021/03/19 04:06:09;;;;;;;124.17;81.70;;;;;;;-1.98;71.98;100559.84;127957;1101;23359;-76
2021/03/19 04:08:38;;;;;;;124.45;80.28;;;;;;;-1.97;72.30;100561.50;127945;1101;22502;-78
2021/03/19 04:11:12;;;;;;;109.80;81.08;;;;;;;-1.99;72.07;100555.59;127991;1101;22622;-77
2021/03/19 04:13:41;;;;;;;126.12;83.60;;;;;;;-1.99;72.25;100559.94;128039;1101;22573;-77
2021/03/19 04:16:11;;;;;;;119.15;83.35;;;;;;;-2.01;71.86;100556.58;127973;1100;22531;-78
2021/03/19 04:18:40;;;;;;;123.25;81.92;;;;;;;-2.02;72.40;100560.09;128043;1101;22505;-78
2021/03/19 04:21:10;;;;;;;130.93;87.00;;;;;;;-2.02;72.47;100566.11;128042;1101;22622;-78
2021/03/19 04:23:42;;;;;;;129.27;87.85;;;;;;;-2.03;72.57;100569.63;128099;1099;24581;-78
2021/03/19 04:26:19;;;;;;;;;;;;;;;-2.08;71.66;100555.24;128105;1101;24284;-78
2021/03/19 04:28:48;;;;;;;135.72;78.33;;;;;;;-2.12;72.52;100554.57;128097;1101;21302;-77
2021/03/19 04:31:16;;;;;;;129.25;84.97;;;;;;;-2.12;72.88;100549.39;128024;1101;22495;-77
2021/03/19 04:33:46;;;;;;;136.35;86.63;;;;;;;-2.12;72.23;100543.39;128065;1100;22520;-77
2021/03/19 04:36:40;;;;;;;140.90;89.52;;;;;;;-2.11;72.45;100551.05;128094;1101;22619;-77
2021/03/19 04:39:24;;;;;;;140.85;88.33;;;;;;;-2.12;72.42;100554.57;128267;1101;22492;-78
2021/03/19 04:41:56;;;;;;;134.12;89.32;;;;;;;-2.14;72.10;100556.39;128018;1101;22684;-78
2021/03/19 04:44:30;;;;;;;140.12;89.13;;;;;;;-2.14;72.29;100558.98;128040;1101;22676;-78
2021/03/19 04:46:58;;;;;;;142.90;91.85;;;;;;;-2.15;71.99;100559.91;128085;1101;22502;-77
2021/03/19 04:49:26;;;;;;;145.75;94.03;;;;;;;-2.14;72.31;100561.57;127972;1101;24275;-77
2021/03/19 04:51:55;;;;;;;142.35;93.92;;;;;;;-2.13;72.51;100555.50;127997;1100;22537;-78
2021/03/19 04:54:23;;;;;;;149.00;99.15;;;;;;;-2.13;72.18;100563.27;127994;1101;23420;-77
2021/03/19 04:56:52;;;;;;;145.72;96.30;;;;;;;-2.12;72.83;100559.75;128001;1101;22654;-77
2021/03/19 04:59:21;;;;;;;142.75;95.20;;;;;;;-2.09;72.81;100558.76;127942;1103;22539;-77
2021/03/19 05:02:00;;;;;;;141.60;96.33;;;;;;;-2.07;72.32;100562.91;127995;1101;22583;-78
2021/03/19 05:04:30;;;;;;;137.82;95.22;;;;;;;-2.06;72.60;100556.84;128309;1099;22633;-78
2021/03/19 05:07:09;;;;;;;143.80;96.82;;;;;;;-2.02;72.29;100567.86;128016;1100;22683;-78
2021/03/19 05:09:37;;;;;;;141.88;96.15;;;;;;;-2.00;72.96;100553.06;127966;1103;22860;-77
2021/03/19 05:12:06;;;;;;;150.38;96.40;;;;;;;-1.96;73.26;100552.84;127967;1102;24098;-77
2021/03/19 05:14:34;;;;;;;145.50;96.60;;;;;;;-1.93;72.66;100557.85;127937;1103;22508;-78
2021/03/19 05:17:02;;;;;;;140.73;93.42;;;;;;;-1.90;73.03;100555.09;127998;1104;22514;-78
2021/03/19 05:19:30;;;;;;;144.72;92.70;;;;;;;-1.86;73.04;100560.95;127972;1102;22530;-78
2021/03/19 05:21:59;;;;;;;138.77;92.05;;;;;;;-1.82;72.84;100569.37;127926;1103;25251;-77
2021/03/19 05:24:27;;;;;;;133.78;91.63;;;;;;;-1.82;73.06;100559.85;127972;1102;22599;-78
2021/03/19 05:26:56;;;;;;;130.05;89.62;;;;;;;-1.78;72.51;100565.70;127953;1103;22506;-77
2021/03/19 05:29:27;;;;;;;137.32;88.70;;;;;;;-1.75;73.33;100557.77;127951;1102;22506;-78
2021/03/19 05:31:56;;;;;;;136.35;92.45;;;;;;;-1.73;73.29;100564.53;127938;1103;22589;-77
2021/03/19 05:34:25;;;;;;;148.28;97.25;;;;;;;-1.69;73.11;100560.02;128274;1099;22515;-78
2021/03/19 05:36:53;;;;;;;140.18;93.70;;;;;;;-1.64;73.16;100565.77;127958;1103;22633;-77
2021/03/19 05:39:21;;;;;;;140.28;94.45;;;;;;;-1.58;72.56;100567.19;128024;1103;22563;-78
2021/03/19 05:41:49;;;;;;;148.60;95.65;;;;;;;-1.53;72.88;100575.56;127940;1103;22650;-78
2021/03/19 05:44:22;;;;;;;158.72;102.53;;;;;;;-1.51;73.25;100565.92;127970;1103;22631;-78
2021/03/19 05:46:55;;;;;;;146.55;100.25;;;;;;;-1.49;72.52;100577.88;127982;1104;24366;-78
2021/03/19 05:49:28;;;;;;;146.10;104.90;;;;;;;-1.45;72.56;100575.95;127990;1103;24613;-78
2021/03/19 05:52:28;;;;;;;155.65;99.10;;;;;;;-1.43;72.71;100574.12;128023;1101;22500;-78
2021/03/19 05:54:57;;;;;;;154.20;101.40;;;;;;;-1.42;72.15;100574.03;128048;1101;24327;-79
2021/03/19 05:57:33;;;;;;;159.93;103.87;;;;;;;-1.36;72.96;100572.03;128018;1101;22465;-77
2021/03/19 06:00:06;;;;;;;170.55;107.20;;;;;;;-1.31;72.30;100577.77;127979;1101;23432;-77
2021/03/19 06:02:38;;;;;;;152.82;101.80;;;;;;;-1.25;73.23;100580.02;128017;1101;22526;-78
2021/03/19 06:05:15;;;;;;;143.25;92.95;;;;;;;-1.20;73.32;100584.03;128026;1101;22593;-77
2021/03/19 06:08:07;;;;;;;145.32;90.53;;;;;;;-1.15;72.65;100588.12;128038;1101;22519;-81
2021/03/19 06:10:39;;;;;;;139.97;88.87;;;;;;;-1.09;72.66;100588.61;128064;1101;22492;-78
2021/03/19 06:13:52;;;;;;;137.55;90.32;;;;;;;-0.99;72.90;100592.34;128025;1101;25203;-78
2021/03/19 06:16:35;;;;;;;128.30;85.30;;;;;;;-0.90;72.83;100587.53;128007;1101;24349;-78
2021/03/19 06:19:37;;;;;;;134.57;85.40;;;;;;;-0.82;72.91;100586.17;128011;1101;22526;-77
2021/03/19 06:22:23;;;;;;;128.12;87.27;;;;;;;-0.69;73.39;100591.48;127601;1104;22497;-77
2021/03/19 06:25:18;;;;;;;121.70;91.20;;;;;;;-0.57;73.55;100588.16;127921;1103;25987;-77
2021/03/19 06:27:59;;;;;;;143.93;97.10;;;;;;;-0.43;73.94;100602.07;127872;1105;22491;-77
2021/03/19 06:30:40;;;;;;;138.47;93.80;;;;;;;-0.30;72.95;100600.41;127554;1104;22928;-77
2021/03/19 06:33:14;;;;;;;133.85;94.60;;;;;;;-0.18;73.61;100607.47;127974;1103;23986;-77
2021/03/19 06:35:48;;;;;;;133.18;90.15;;;;;;;-0.08;72.80;100600.80;127904;1103;22926;-78
2021/03/19 06:38:40;;;;;;;112.77;83.45;;;;;;;0.05;73.08;100602.65;127485;1104;22629;-77
2021/03/19 06:41:26;;;;;;;114.57;81.32;;;;;;;0.16;73.00;100606.23;127945;1102;23316;-78
2021/03/19 06:44:20;;;;;;;107.85;78.55;;;;;;;0.32;72.69;100607.89;127908;1105;22493;-78
2021/03/19 06:46:59;;;;;;;109.57;82.25;;;;;;;0.45;72.56;100607.03;127922;1102;22626;-79
2021/03/19 06:49:30;;;;;;;113.55;84.75;;;;;;;0.62;72.95;100600.75;127939;1104;23219;-78
2021/03/19 06:52:37;;;;;;;150.38;118.80;;;;;;;0.81;72.29;100607.39;128131;1103;22751;-78
2021/03/19 06:55:52;;;;;;;147.40;117.80;;;;;;;1.03;72.72;100609.41;127506;1107;22626;-75
2021/03/19 06:58:48;;;;;;;121.00;91.78;;;;;;;1.29;72.56;100600.73;127443;1106;22528;-81
2021/03/19 07:01:22;;;;;;;123.00;87.02;;;;;;;1.55;72.07;100606.80;127964;1103;22635;-79
2021/03/19 07:04:16;;;;;;;126.72;86.20;;;;;;;1.77;72.08;100608.78;127937;1102;23086;-77
2021/03/19 07:07:08;;;;;;;128.85;89.65;;;;;;;2.03;71.22;100612.21;127545;1105;23564;-77
2021/03/19 07:10:17;;;;;;;121.97;87.10;;;;;;;2.36;71.78;100613.37;127929;1102;22629;-77
2021/03/19 07:13:32;;;;;;;130.27;90.30;;;;;;;2.76;71.51;100613.13;127527;1105;22532;-77
2021/03/19 07:16:18;;;;;;;135.65;97.17;;;;;;;3.09;70.59;100603.78;127964;1103;22524;-77
2021/03/19 07:19:18;;;;;;;129.35;97.30;;;;;;;3.34;69.71;100618.47;127551;1105;22518;-76
2021/03/19 07:22:11;;;;;;;132.40;92.70;;;;;;;3.61;68.48;100626.83;127544;1104;22554;-77
2021/03/19 07:25:19;;;;;;;135.30;98.17;;;;;;;3.81;67.44;100627.09;127546;1105;22527;-77
2021/03/19 07:28:30;;;;;;;127.15;91.80;;;;;;;4.05;67.09;100624.38;128016;1101;22497;-76
2021/03/19 07:31:45;;;;;;;123.03;89.73;;;;;;;4.30;66.98;100625.89;127996;1105;23492;-77
2021/03/19 07:34:32;;;;;;;121.02;84.47;;;;;;;4.49;65.99;100634.78;127735;1104;22595;-77
2021/03/19 07:37:40;;;;;;;121.15;87.08;;;;;;;4.60;64.85;100631.34;127952;1104;25207;-77
2021/03/19 07:40:31;;;;;;;113.85;83.75;;;;;;;4.71;64.53;100636.53;127919;1103;24134;-77
2021/03/19 07:43:46;;;;;;;110.42;82.62;;;;;;;4.83;63.52;100632.11;127911;1105;24692;-77
2021/03/19 07:46:27;;;;;;;104.87;73.67;;;;;;;4.93;63.70;100640.02;127950;1104;22500;-77
2021/03/19 07:49:20;;;;;;;97.40;70.87;;;;;;;4.95;62.44;100625.03;127919;1105;22533;-77
2021/03/19 07:52:39;;;;;;;92.70;66.47;;;;;;;4.87;62.11;100630.08;127938;1102;25118;-78
2021/03/19 07:55:27;;;;;;;99.85;74.92;;;;;;;4.80;61.81;100626.26;127924;1103;24613;-81
2021/03/19 07:58:17;;;;;;;86.67;65.97;;;;;;;5.02;62.78;100625.36;128009;1105;23470;-77
2021/03/19 08:00:54;;;;;;;71.15;53.87;;;;;;;5.59;63.47;100624.11;127923;1104;22763;-77
2021/03/19 08:03:31;;;;;;;70.25;52.17;;;;;;;6.02;62.32;100631.82;127600;1104;24588;-77
2021/03/19 08:06:15;;;;;;;73.35;54.53;;;;;;;6.48;61.82;100633.09;127599;1104;22542;-77
2021/03/19 08:09:02;;;;;;;68.90;48.63;;;;;;;7.07;60.95;100634.84;127744;1104;22657;-77
2021/03/19 08:11:49;;;;;;;65.62;48.23;;;;;;;7.61;59.66;100637.83;128281;1101;22499;-77
2021/03/19 08:15:01;;;;;;;61.73;45.00;;;;;;;7.99;57.54;100630.78;128020;1101;23416;-78
2021/03/19 08:18:08;;;;;;;61.00;46.05;;;;;;;8.45;56.67;100637.81;128003;1101;22492;-79
2021/03/19 08:21:12;;;;;;;43.63;30.97;;;;;;;8.70;54.51;100643.38;128158;1101;22536;-77
2021/03/19 08:24:05;;;;;;;35.05;25.80;;;;;;;8.40;52.84;100640.08;127965;1103;22546;-77
2021/03/19 08:26:44;;;;;;;55.70;33.15;;;;;;;8.17;52.44;100644.03;127548;1102;24584;-78
2021/03/19 08:29:51;;;;;;;42.35;30.77;;;;;;;8.05;52.62;100639.92;128015;1102;23097;-77
2021/03/19 08:32:31;;;;;;;50.85;29.05;;;;;;;7.78;51.93;100636.27;127955;1104;22623;-78
2021/03/19 08:35:27;;;;;;;38.85;29.95;;;;;;;7.59;52.26;100633.67;127947;1105;22562;-78
2021/03/19 08:38:16;;;;;;;53.90;43.95;;;;;;;7.40;52.31;100635.38;127957;1103;23359;-77
2021/03/19 08:41:07;;;;;;;63.95;44.90;;;;;;;7.16;52.33;100641.04;128000;1104;25123;-77
2021/03/19 08:43:49;;;;;;;51.00;39.25;;;;;;;6.98;52.24;100642.70;128027;1105;22658;-77
2021/03/19 08:46:41;;;;;;;48.15;35.38;;;;;;;6.74;52.69;100645.73;128040;1103;22594;-78
2021/03/19 08:49:24;;;;;;;;;;;;;;;6.29;52.13;100640.90;128050;1103;22499;-78
2021/03/19 08:51:56;;;;;;;48.55;35.08;;;;;;;6.15;53.77;100642.09;128027;1102;21291;-78
2021/03/19 08:54:32;;;;;;;;;;;;;;;6.08;52.79;100649.66;127992;1104;22709;-78
2021/03/19 08:57:02;;;;;;;42.50;29.07;;;;;;;6.07;54.16;100641.94;127691;1105;21441;-78
2021/03/19 08:59:33;;;;;;;38.73;27.93;;;;;;;6.11;53.48;100641.53;127994;1104;25416;-78
2021/03/19 09:02:25;;;;;;;42.60;28.40;;;;;;;6.20;53.46;100644.31;128186;1101;24686;-78
2021/03/19 09:04:56;;;;;;;33.48;27.52;;;;;;;6.28;53.60;100642.70;128359;1101;22508;-78
2021/03/19 09:07:38;;;;;;;41.23;28.55;;;;;;;6.63;54.24;100640.57;128283;1099;22573;-78
2021/03/19 09:10:32;;;;;;;35.63;26.80;;;;;;;7.27;54.39;100646.17;128304;1099;24241;-78
2021/03/19 09:13:07;;;;;;;38.45;27.85;;;;;;;7.76;53.21;100638.19;128104;1101;22485;-80
2021/03/19 09:15:55;;;;;;;31.75;23.05;;;;;;;7.84;51.45;100635.70;128180;1100;22436;-78
2021/03/19 09:18:48;;;;;;;35.90;30.55;;;;;;;7.78;50.49;100638.89;128166;1101;22514;-79
2021/03/19 09:21:37;;;;;;;45.17;35.52;;;;;;;7.83;50.95;100634.05;128265;1103;22505;-78
2021/03/19 09:24:22;;;;;;;71.65;60.70;;;;;;;7.81;50.75;100633.35;128140;1103;22512;-79
2021/03/19 09:26:54;;;;;;;46.20;35.52;;;;;;;7.62;50.00;100634.22;128114;1104;24637;-78
2021/03/19 09:29:31;;;;;;;23.65;19.67;;;;;;;7.33;49.61;100633.42;128071;1104;23279;-78
2021/03/19 09:32:25;;;;;;;30.77;21.37;;;;;;;6.95;49.40;100641.17;128132;1102;22712;-77
2021/03/19 09:34:54;;;;;;;16.97;12.50;;;;;;;6.58;49.55;100635.74;128012;1103;22505;-78
2021/03/19 09:37:38;;;;;;;25.10;15.78;;;;;;;6.35;49.27;100638.57;128070;1102;22509;-78
2021/03/19 09:40:07;;;;;;;27.52;22.40;;;;;;;6.04;49.45;100640.40;128134;1102;22505;-80
2021/03/19 09:42:52;;;;;;;17.30;14.90;;;;;;;5.77;49.55;100637.48;128199;1101;22575;-76
2021/03/19 09:45:26;;;;;;;18.48;14.20;;;;;;;5.45;49.80;100645.41;128207;1103;22518;-79
2021/03/19 09:48:22;;;;;;;16.93;11.15;;;;;;;5.16;49.95;100649.48;128343;1100;22516;-79
2021/03/19 09:51:01;;;;;;;13.75;10.65;;;;;;;4.96;49.46;100652.86;128214;1100;23463;-77
2021/03/19 09:53:36;;;;;;;17.65;13.50;;;;;;;4.78;50.08;100643.89;128228;1101;22490;-75
2021/03/19 09:56:22;;;;;;;27.25;16.37;;;;;;;4.62;50.65;100650.34;128160;1101;24121;-77
2021/03/19 09:58:56;;;;;;;20.45;15.38;;;;;;;4.48;50.27;100653.23;128120;1101;22797;-76
2021/03/19 10:01:33;;;;;;;21.23;18.20;;;;;;;4.35;50.81;100652.53;128146;1101;22576;-76
2021/03/19 10:04:06;;;;;;;19.52;15.28;;;;;;;4.24;50.89;100658.61;128160;1101;24261;-76
2021/03/19 10:06:47;;;;;;;18.40;13.23;;;;;;;4.09;51.35;100647.53;128357;1101;24279;-76
2021/03/19 10:09:45;;;;;;;18.82;14.78;;;;;;;3.97;51.95;100649.33;128173;1100;22611;-76
2021/03/19 10:12:34;;;;;;;16.95;13.70;;;;;;;3.88;52.94;100646.58;128128;1101;22467;-76
2021/03/19 10:15:27;;;;;;;16.52;12.93;;;;;;;3.78;52.96;100642.05;128118;1101;23134;-77
2021/03/19 10:18:00;;;;;;;28.35;21.02;;;;;;;3.75;53.64;100651.91;128114;1099;22502;-76
2021/03/19 10:20:39;;;;;;;17.12;13.55;;;;;;;3.72;54.71;100660.80;128192;1101;24287;-76
2021/03/19 10:23:24;;;;;;;16.70;14.33;;;;;;;3.69;54.25;100653.20;128111;1101;22523;-75
2021/03/19 10:26:04;;;;;;;24.47;15.13;;;;;;;3.70;54.99;100649.66;128312;1099;22494;-76
2021/03/19 10:28:33;;;;;;;26.10;21.35;;;;;;;3.76;55.48;100651.77;128142;1101;22801;-76
2021/03/19 10:31:15;;;;;;;30.02;24.82;;;;;;;3.87;55.64;100648.38;128104;1101;24329;-75
2021/03/19 10:33:52;;;;;;;;;;;;;;;3.97;55.48;100644.09;128185;1101;22499;-76
2021/03/19 10:36:46;;;;;;;19.55;15.78;;;;;;;4.07;55.65;100646.02;128389;1099;21308;-75
2021/03/19 10:39:48;;;;;;;23.25;18.95;;;;;;;4.25;56.34;100642.78;128058;1101;22523;-75
2021/03/19 10:42:34;;;;;;;23.97;17.80;;;;;;;4.47;55.26;100647.17;128105;1101;22503;-76
2021/03/19 10:45:50;;;;;;;21.10;14.78;;;;;;;4.65;56.02;100650.09;128149;1101;25547;-76
2021/03/19 10:48:57;;;;;;;23.85;14.47;;;;;;;4.85;55.41;100645.06;128158;1101;22553;-76
2021/03/19 10:52:02;;;;;;;19.05;12.13;;;;;;;4.96;54.07;100647.63;128329;1100;24336;-74
2021/03/19 10:54:37;;;;;;;14.18;11.08;;;;;;;4.82;53.74;100645.30;128021;1101;22629;-76
2021/03/19 10:57:35;;;;;;;16.35;12.10;;;;;;;4.69;53.76;100654.13;128052;1101;22493;-77
2021/03/19 11:00:37;;;;;;;12.28;10.23;;;;;;;4.59;53.87;100650.58;128104;1100;23517;-75
2021/03/19 11:03:08;;;;;;;12.37;11.03;;;;;;;4.56;54.00;100650.82;128149;1101;22490;-75
2021/03/19 11:06:02;;;;;;;12.20;10.72;;;;;;;4.72;54.52;100648.65;128062;1101;24301;-75
2021/03/19 11:08:30;;;;;;;14.30;10.55;;;;;;;4.96;54.61;100642.39;128063;1101;22699;-75
2021/03/19 11:10:59;;;;;;;12.23;9.40;;;;;;;5.05;54.32;100646.06;128050;1101;22567;-75
2021/03/19 11:13:37;;;;;;;17.10;11.22;;;;;;;5.18;54.83;100644.94;128084;1101;22516;-75
2021/03/19 11:16:37;;;;;;;19.85;11.35;;;;;;;5.25;53.66;100642.64;128074;1101;22498;-75
2021/03/19 11:19:14;;;;;;;13.20;10.10;;;;;;;5.20;53.35;100647.44;128064;1101;24588;-75
2021/03/19 11:21:45;;;;;;;15.32;11.78;;;;;;;5.09;53.77;100653.53;128098;1100;22567;-75
2021/03/19 11:24:32;;;;;;;12.73;11.43;;;;;;;4.88;53.57;100657.91;128138;1101;22490;-75
2021/03/19 11:27:07;;;;;;;16.42;12.37;;;;;;;4.56;53.31;100660.45;128010;1101;22602;-75
2021/03/19 11:29:39;;;;;;;17.57;12.78;;;;;;;4.37;54.15;100658.48;128359;1100;24360;-75
2021/03/19 11:32:10;;;;;;;17.17;12.20;;;;;;;4.24;54.82;100655.98;128092;1101;22514;-75
2021/03/19 11:34:45;;;;;;;14.50;12.03;;;;;;;4.14;55.21;100655.87;128258;1100;22491;-75
2021/03/19 11:37:23;;;;;;;13.50;12.10;;;;;;;4.06;56.35;100657.40;128281;1101;25174;-76
2021/03/19 11:40:24;;;;;;;15.32;12.30;;;;;;;4.01;56.52;100647.31;128243;1101;22942;-76
2021/03/19 11:42:58;;;;;;;16.95;13.40;;;;;;;3.93;57.85;100650.52;127928;1104;22958;-76
2021/03/19 11:45:36;;;;;;;16.60;14.10;;;;;;;3.91;58.47;100649.80;128007;1103;22520;-75
2021/03/19 11:48:06;;;;;;;21.60;15.40;;;;;;;3.97;58.94;100648.50;127676;1105;22475;-75
2021/03/19 11:50:54;;;;;;;23.62;16.62;;;;;;;4.05;58.93;100640.06;127979;1102;22543;-75
2021/03/19 11:53:27;;;;;;;26.42;20.40;;;;;;;4.12;59.43;100644.69;128060;1102;24299;-76
2021/03/19 11:55:58;;;;;;;24.90;18.02;;;;;;;4.19;59.96;100637.19;128001;1103;22525;-76
2021/03/19 11:58:30;;;;;;;27.07;19.05;;;;;;;4.34;60.52;100641.23;127919;1104;24274;-76
2021/03/19 12:01:04;;;;;;;21.02;16.65;;;;;;;4.56;60.82;100636.91;128008;1104;22496;-75
2021/03/19 12:03:45;;;;;;;17.65;13.20;;;;;;;4.78;60.25;100643.89;127854;1104;22607;-76